Time;durP1;ratioP1;P1;durP2;ratioP2;P2;SDS_P1;SDS_P2;PMS_P1;PMS_P2;Temp;Humidity;BMP_temperature;BMP_pressure;BME280_temperature;BME280_humidity;BME280_pressure;Samples;Min_cycle;Max_cycle;Signal;HPM_P1;HPM_P2
2023/02/10 00:01:18;;;;;;;27.30;15.75;;;18.90;99.90;;;;;;5040255;28;20061;-50
2023/02/10 00:03:44;;;;;;;30.77;16.55;;;18.90;99.90;;;;;;5047169;28;20052;-50
2023/02/10 00:06:11;;;;;;;28.60;16.38;;;18.90;99.90;;;;;;5053045;28;20028;-50
2023/02/10 00:08:38;;;;;;;30.58;16.83;;;18.90;99.90;;;;;;5042126;28;20040;-52
2023/02/10 00:11:07;;;;;;;25.83;14.95;;;18.90;99.90;;;;;;5039368;28;20494;-51
2023/02/10 00:13:33;;;;;;;27.77;14.75;;;18.90;99.90;;;;;;5028185;28;20033;-50
2023/02/10 00:16:01;;;;;;;26.55;14.68;;;18.80;99.90;;;;;;5053348;28;20348;-50
2023/02/10 00:18:27;;;;;;;26.65;14.45;;;18.80;99.90;;;;;;5039609;28;20028;-50
2023/02/10 00:20:53;;;;;;;25.52;15.00;;;18.90;99.90;;;;;;5041429;28;20025;-50
2023/02/10 00:23:19;;;;;;;26.80;14.25;;;18.90;99.90;;;;;;5052741;28;20060;-49
2023/02/10 00:25:46;;;;;;;24.35;13.63;;;18.80;99.90;;;;;;5043105;28;20102;-50
2023/02/10 00:28:12;;;;;;;23.97;13.83;;;18.80;99.90;;;;;;5033894;28;20040;-50
2023/02/10 00:30:39;;;;;;;25.58;14.80;;;18.80;99.90;;;;;;5044638;28;20037;-50
2023/02/10 00:33:04;;;;;;;24.52;13.40;;;18.80;99.90;;;;;;5047394;28;20053;-50
2023/02/10 00:35:31;;;;;;;21.70;12.30;;;18.80;99.90;;;;;;5052476;28;20048;-50
2023/02/10 00:37:57;;;;;;;25.45;13.02;;;18.80;99.90;;;;;;5041134;28;20021;-49
2023/02/10 00:40:22;;;;;;;24.58;13.60;;;18.80;99.90;;;;;;5052130;28;20032;-50
2023/02/10 00:42:48;;;;;;;26.42;14.65;;;18.80;99.90;;;;;;5053329;28;20414;-49
2023/02/10 00:45:14;;;;;;;24.90;15.13;;;18.80;99.90;;;;;;5053570;28;20021;-50
2023/02/10 00:47:40;;;;;;;30.35;17.10;;;18.80;99.90;;;;;;5053533;28;20044;-51
2023/02/10 00:50:06;;;;;;;27.88;16.80;;;18.80;99.90;;;;;;5053235;28;20021;-51
2023/02/10 00:52:32;;;;;;;32.72;16.60;;;18.80;99.90;;;;;;5035056;28;20029;-52
2023/02/10 00:54:57;;;;;;;31.02;18.45;;;18.80;99.90;;;;;;5033210;28;20491;-51
2023/02/10 00:57:23;;;;;;;38.75;20.05;;;18.70;99.90;;;;;;5049452;28;20054;-52
2023/02/10 00:59:49;;;;;;;33.83;21.02;;;18.70;99.90;;;;;;5043909;28;20025;-53
2023/02/10 01:02:15;;;;;;;39.13;22.55;;;18.70;99.90;;;;;;5034864;28;20030;-50
2023/02/10 01:04:41;;;;;;;41.75;24.17;;;18.70;99.90;;;;;;5053033;28;20032;-51
2023/02/10 01:07:07;;;;;;;41.08;23.58;;;18.70;99.90;;;;;;5039257;28;20021;-51
2023/02/10 01:09:32;;;;;;;42.65;23.58;;;18.70;99.90;;;;;;5040056;28;20482;-50
2023/02/10 01:11:58;;;;;;;40.45;23.73;;;18.70;99.90;;;;;;5039184;28;20067;-52
2023/02/10 01:14:25;;;;;;;44.22;24.63;;;18.70;99.90;;;;;;5046038;28;20360;-50
2023/02/10 01:16:51;;;;;;;40.47;24.40;;;18.70;99.90;;;;;;5046150;28;20025;-50
2023/02/10 01:19:17;;;;;;;43.72;25.17;;;18.60;99.90;;;;;;5033176;28;20491;-50
2023/02/10 01:21:43;;;;;;;45.45;24.67;;;18.60;99.90;;;;;;5033268;28;20025;-50
2023/02/10 01:24:09;;;;;;;41.15;23.83;;;18.60;99.90;;;;;;5032701;28;20025;-50
2023/02/10 01:26:35;;;;;;;44.10;26.23;;;18.60;99.90;;;;;;5044629;28;20471;-50
2023/02/10 01:29:01;;;;;;;42.90;23.38;;;18.70;99.90;;;;;;5039335;28;20103;-51
2023/02/10 01:31:27;;;;;;;44.45;25.05;;;18.60;99.90;;;;;;5022740;28;20040;-51
2023/02/10 01:33:54;;;;;;;35.90;22.27;;;18.60;99.90;;;;;;5045610;28;20379;-51
2023/02/10 01:36:23;;;;;;;40.33;24.58;;;18.60;99.90;;;;;;5042409;28;20028;-49
2023/02/10 01:38:49;;;;;;;38.85;21.85;;;18.60;99.90;;;;;;5049623;28;20117;-50
2023/02/10 01:41:18;;;;;;;45.42;22.98;;;18.60;99.90;;;;;;5042017;28;20029;-50
2023/02/10 01:44:06;;;;;;;40.05;23.40;;;18.60;99.90;;;;;;5052369;28;20478;-49
2023/02/10 01:46:32;;;;;;;;;;;18.60;99.90;;;;;;5041543;28;20030;-50
2023/02/10 01:49:03;;;;;;;36.60;22.33;;;18.60;99.90;;;;;;5037320;28;19912;-49
2023/02/10 01:51:37;;;;;;;36.20;19.63;;;18.60;99.90;;;;;;5051816;28;20068;-50
2023/02/10 01:54:05;;;;;;;33.58;20.38;;;18.60;99.90;;;;;;5033818;28;20025;-49
2023/02/10 01:56:31;;;;;;;34.85;19.75;;;18.50;99.90;;;;;;5032627;28;20037;-51
2023/02/10 01:58:57;;;;;;;35.42;20.00;;;18.60;99.90;;;;;;5032156;28;20018;-51
2023/02/10 02:01:23;;;;;;;33.25;18.55;;;18.50;99.90;;;;;;5043289;28;20059;-50
2023/02/10 02:03:49;;;;;;;33.03;17.23;;;18.60;99.90;;;;;;5051826;28;20104;-50
2023/02/10 02:06:15;;;;;;;34.38;18.65;;;18.50;99.90;;;;;;5043869;28;20083;-51
2023/02/10 02:08:41;;;;;;;29.88;18.08;;;18.50;99.90;;;;;;5033792;28;20033;-50
2023/02/10 02:11:28;;;;;;;26.73;16.95;;;18.50;99.90;;;;;;5051869;28;20487;-50
2023/02/10 02:14:15;;;;;;;30.63;17.60;;;18.50;99.90;;;;;;5038199;28;20056;-51
2023/02/10 02:16:57;;;;;;;29.30;17.17;;;18.50;99.90;;;;;;5039268;28;20037;-51
2023/02/10 02:19:23;;;;;;;30.85;18.38;;;18.50;99.90;;;;;;5038564;28;20490;-49
2023/02/10 02:21:54;;;;;;;26.15;14.80;;;18.50;99.90;;;;;;5038704;28;20021;-51
2023/02/10 02:24:39;;;;;;;29.58;17.17;;;18.50;99.90;;;;;;5000130;28;20025;-49
2023/02/10 02:27:37;;;;;;;25.65;14.75;;;18.50;99.90;;;;;;5047071;28;20025;-51
2023/02/10 02:30:20;;;;;;;26.83;14.93;;;18.50;99.90;;;;;;5038827;28;20108;-50
2023/02/10 02:32:57;;;;;;;27.90;15.27;;;18.50;99.90;;;;;;5039077;28;20025;-49
2023/02/10 02:35:39;;;;;;;24.05;13.50;;;18.50;99.90;;;;;;5036065;28;20486;-50
2023/02/10 02:38:05;;;;;;;23.92;14.57;;;18.50;99.90;;;;;;5032017;28;20099;-50
2023/02/10 02:40:31;;;;;;;25.00;14.32;;;18.50;99.90;;;;;;5045076;28;20520;-50
2023/02/10 02:42:56;;;;;;;25.85;14.98;;;18.50;99.90;;;;;;5031640;28;20025;-50
2023/02/10 02:45:58;;;;;;;29.65;13.93;;;18.40;99.90;;;;;;5044919;28;20379;-50
2023/02/10 02:48:29;;;;;;;24.48;12.73;;;18.40;99.90;;;;;;5033559;28;20059;-50
2023/02/10 02:51:47;;;;;;;21.83;12.98;;;18.40;99.90;;;;;;5038247;28;20028;-50
2023/02/10 02:54:53;;;;;;;22.70;12.57;;;18.40;99.90;;;;;;4946986;29;20042;-50
2023/02/10 02:57:23;;;;;;;29.83;12.67;;;18.40;99.90;;;;;;4894548;29;20056;-50
2023/02/10 03:00:04;;;;;;;21.33;12.18;;;18.40;99.90;;;;;;4980953;28;20458;-55
2023/02/10 03:02:32;;;;;;;25.00;11.85;;;18.40;99.90;;;;;;5031350;28;20045;-50
2023/02/10 03:04:59;;;;;;;24.33;11.80;;;18.40;99.90;;;;;;5045208;28;20043;-48
2023/02/10 03:07:25;;;;;;;21.75;10.80;;;18.40;99.90;;;;;;5037079;28;20036;-50
2023/02/10 03:09:51;;;;;;;19.77;11.05;;;18.40;99.90;;;;;;5055344;28;20017;-48
2023/02/10 03:12:17;;;;;;;23.48;11.95;;;18.40;99.90;;;;;;5041606;28;20557;-50
2023/02/10 03:14:42;;;;;;;22.98;11.75;;;18.40;99.90;;;;;;5055106;28;20063;-49
2023/02/10 03:17:08;;;;;;;19.45;10.48;;;18.40;99.90;;;;;;5041941;28;20083;-49
2023/02/10 03:19:34;;;;;;;18.70;10.73;;;18.40;99.90;;;;;;5048348;28;20013;-49
2023/02/10 03:22:00;;;;;;;19.42;10.95;;;18.40;99.90;;;;;;5030689;28;20387;-50
2023/02/10 03:24:26;;;;;;;19.67;9.85;;;18.40;99.90;;;;;;5041699;28;20021;-50
2023/02/10 03:26:52;;;;;;;23.10;11.88;;;18.40;99.90;;;;;;5054942;28;20036;-49
2023/02/10 03:29:18;;;;;;;16.13;10.57;;;18.30;99.90;;;;;;5035811;28;20018;-51
2023/02/10 03:31:44;;;;;;;23.02;11.32;;;18.40;99.90;;;;;;5034706;28;20040;-51
2023/02/10 03:34:10;;;;;;;17.30;9.98;;;18.30;99.90;;;;;;5048200;28;20387;-51
2023/02/10 03:36:35;;;;;;;19.15;9.38;;;18.30;99.90;;;;;;5047443;28;20063;-51
2023/02/10 03:39:03;;;;;;;15.52;8.98;;;18.30;99.90;;;;;;5036784;28;20499;-51
2023/02/10 03:41:29;;;;;;;21.63;10.40;;;18.30;99.90;;;;;;5034710;28;20025;-51
2023/02/10 03:43:55;;;;;;;15.27;8.18;;;18.30;99.90;;;;;;5034452;28;20043;-51
2023/02/10 03:46:21;;;;;;;17.50;8.70;;;18.30;99.90;;;;;;5044524;28;20025;-49
2023/02/10 03:48:47;;;;;;;20.48;9.90;;;18.30;99.90;;;;;;5051137;28;20128;-51
2023/02/10 03:51:13;;;;;;;14.77;8.80;;;18.30;99.90;;;;;;5034486;28;20115;-51
2023/02/10 03:53:39;;;;;;;18.80;8.65;;;18.30;99.90;;;;;;5047942;28;20025;-52
2023/02/10 03:56:06;;;;;;;16.60;8.60;;;18.30;99.90;;;;;;5034976;28;20128;-51
2023/02/10 03:58:33;;;;;;;17.70;8.70;;;18.30;99.90;;;;;;5034346;28;20025;-51
2023/02/10 04:00:58;;;;;;;17.25;8.85;;;18.30;99.90;;;;;;5034648;28;20491;-51
2023/02/10 04:03:24;;;;;;;16.38;8.05;;;18.30;99.90;;;;;;5030137;28;20060;-51
2023/02/10 04:05:50;;;;;;;16.10;7.95;;;18.30;99.90;;;;;;5035276;28;20021;-52
2023/02/10 04:08:17;;;;;;;16.75;8.25;;;18.30;99.90;;;;;;5034141;28;20392;-52
2023/02/10 04:10:42;;;;;;;15.32;8.50;;;18.30;99.90;;;;;;5048767;28;20178;-51
2023/02/10 04:13:08;;;;;;;16.58;8.15;;;18.20;99.90;;;;;;5027507;28;20017;-52
2023/02/10 04:15:34;;;;;;;13.93;7.78;;;18.20;99.90;;;;;;5036055;28;20467;-51
2023/02/10 04:18:00;;;;;;;16.80;7.43;;;18.20;99.90;;;;;;5044870;28;20033;-51
2023/02/10 04:20:26;;;;;;;16.33;7.40;;;18.20;99.90;;;;;;5040397;28;20429;-50
2023/02/10 04:22:52;;;;;;;17.45;8.40;;;18.20;99.90;;;;;;5043827;28;20104;-51
2023/02/10 04:25:18;;;;;;;14.75;7.95;;;18.20;99.90;;;;;;5037214;28;20107;-51
2023/02/10 04:27:43;;;;;;;15.23;8.00;;;18.20;99.90;;;;;;5053698;28;20489;-51
2023/02/10 04:30:10;;;;;;;14.65;7.13;;;18.20;99.90;;;;;;5038838;28;20032;-51
2023/02/10 04:32:35;;;;;;;12.68;7.20;;;18.20;99.90;;;;;;5041953;28;20056;-51
2023/02/10 04:35:01;;;;;;;16.15;7.65;;;18.20;99.90;;;;;;5041026;28;20095;-51
2023/02/10 04:37:27;;;;;;;13.10;7.18;;;18.20;99.90;;;;;;5033490;28;20033;-49
2023/02/10 04:39:53;;;;;;;13.77;6.82;;;18.20;99.90;;;;;;5033470;28;20026;-51
2023/02/10 04:42:19;;;;;;;14.10;7.15;;;18.10;99.90;;;;;;5033457;28;20014;-51
2023/02/10 04:44:44;;;;;;;13.05;8.50;;;18.10;99.90;;;;;;5042317;28;20039;-51
2023/02/10 04:47:10;;;;;;;14.77;6.25;;;18.10;99.90;;;;;;5046850;28;20026;-51
2023/02/10 04:49:36;;;;;;;10.77;6.35;;;18.10;99.90;;;;;;5033331;28;20079;-52
2023/02/10 04:52:01;;;;;;;11.77;6.05;;;18.10;99.90;;;;;;5033128;28;20038;-52
2023/02/10 04:54:27;;;;;;;13.20;6.95;;;18.10;99.90;;;;;;5033267;28;20017;-51
2023/02/10 04:56:53;;;;;;;15.55;6.60;;;18.10;99.90;;;;;;5019348;28;20425;-51
2023/02/10 04:59:19;;;;;;;11.93;6.43;;;18.10;99.90;;;;;;5043518;28;20024;-50
2023/02/10 05:01:44;;;;;;;15.20;5.97;;;18.10;99.90;;;;;;5050861;28;20402;-51
2023/02/10 05:04:10;;;;;;;10.60;6.20;;;18.10;99.90;;;;;;5052799;28;20024;-51
2023/02/10 05:06:37;;;;;;;14.00;6.22;;;18.10;99.90;;;;;;5052457;28;20032;-51
2023/02/10 05:09:03;;;;;;;12.15;6.03;;;18.10;99.90;;;;;;5049826;28;20017;-51
2023/02/10 05:11:28;;;;;;;10.93;6.53;;;18.10;99.90;;;;;;5041465;28;20425;-51
2023/02/10 05:13:54;;;;;;;11.27;5.88;;;18.10;99.90;;;;;;5051573;28;20032;-51
2023/02/10 05:16:20;;;;;;;14.65;5.90;;;18.10;99.90;;;;;;5052376;28;20028;-51
2023/02/10 05:18:46;;;;;;;18.45;6.35;;;18.00;99.90;;;;;;5046823;28;20029;-51
2023/02/10 05:21:13;;;;;;;12.00;5.28;;;18.00;99.90;;;;;;5048317;28;20040;-51
2023/02/10 05:23:40;;;;;;;12.40;5.97;;;18.00;99.90;;;;;;5045414;28;20399;-51
2023/02/10 05:26:06;;;;;;;15.13;5.45;;;18.00;99.90;;;;;;5031969;28;20103;-51
2023/02/10 05:28:32;;;;;;;14.88;6.20;;;18.00;99.90;;;;;;5015062;28;20028;-51
2023/02/10 05:30:58;;;;;;;15.20;5.65;;;18.00;99.90;;;;;;5043012;28;20482;-51
2023/02/10 05:33:23;;;;;;;12.25;6.13;;;18.00;99.90;;;;;;5052119;28;20375;-51
2023/02/10 05:35:49;;;;;;;14.35;5.97;;;18.00;99.90;;;;;;5042110;28;20021;-51
2023/02/10 05:38:15;;;;;;;13.93;5.65;;;18.00;99.90;;;;;;5031747;28;20025;-51
2023/02/10 05:40:41;;;;;;;11.27;5.88;;;18.00;99.90;;;;;;5051058;28;20059;-51
2023/02/10 05:43:09;;;;;;;8.10;5.18;;;18.00;99.90;;;;;;5048154;28;20034;-50
2023/02/10 05:45:35;;;;;;;8.85;5.22;;;18.00;99.90;;;;;;5032427;28;20568;-50
2023/02/10 05:48:01;;;;;;;10.65;4.97;;;18.00;99.90;;;;;;5048184;28;20028;-50
2023/02/10 05:50:26;;;;;;;12.75;5.03;;;18.00;99.90;;;;;;5051769;28;20471;-50
2023/02/10 05:52:52;;;;;;;11.77;5.35;;;18.00;99.90;;;;;;5051689;28;20394;-51
2023/02/10 05:55:18;;;;;;;12.85;5.15;;;18.00;99.90;;;;;;5051724;28;20028;-49
2023/02/10 05:57:44;;;;;;;10.60;5.43;;;17.90;99.90;;;;;;5051864;28;20032;-50
2023/02/10 06:00:10;;;;;;;12.07;5.13;;;18.00;99.90;;;;;;5051568;28;20033;-49
2023/02/10 06:02:36;;;;;;;12.13;4.88;;;18.00;99.90;;;;;;5051584;28;20081;-50
2023/02/10 06:05:02;;;;;;;24.13;6.13;;;18.00;99.90;;;;;;5051556;28;20017;-53
2023/02/10 06:07:27;;;;;;;13.10;5.75;;;18.00;99.90;;;;;;5051801;28;20029;-52
2023/02/10 06:09:53;;;;;;;11.88;5.82;;;18.00;99.90;;;;;;5030623;28;20034;-52
2023/02/10 06:12:19;;;;;;;15.05;5.57;;;18.00;99.90;;;;;;5032036;28;20059;-50
2023/02/10 06:14:45;;;;;;;13.00;6.13;;;18.00;99.90;;;;;;5031961;28;20147;-52
2023/02/10 06:17:11;;;;;;;10.40;6.07;;;17.90;99.90;;;;;;5031647;28;20033;-50
2023/02/10 06:19:37;;;;;;;12.45;6.05;;;18.00;99.90;;;;;;5031500;28;20106;-53
2023/02/10 06:22:04;;;;;;;11.43;5.75;;;18.00;99.90;;;;;;5031747;28;20030;-51
2023/02/10 06:24:30;;;;;;;11.40;6.10;;;18.00;99.90;;;;;;5031506;28;20026;-52
2023/02/10 06:26:56;;;;;;;11.85;5.72;;;18.00;99.90;;;;;;5031901;28;20086;-53
2023/02/10 06:29:22;;;;;;;14.90;6.30;;;18.00;99.90;;;;;;5031734;28;20029;-53
2023/02/10 06:31:47;;;;;;;13.32;5.95;;;18.00;99.90;;;;;;5031412;28;20041;-52
2023/02/10 06:34:13;;;;;;;12.40;6.28;;;18.00;99.90;;;;;;5031766;28;20029;-52
2023/02/10 06:36:39;;;;;;;11.02;5.90;;;18.00;99.90;;;;;;5031577;28;20025;-49
2023/02/10 06:39:05;;;;;;;12.30;6.38;;;18.00;99.90;;;;;;5033749;28;20036;-53
2023/02/10 06:41:32;;;;;;;14.05;6.68;;;18.00;99.90;;;;;;5035733;28;20025;-50
2023/02/10 06:43:57;;;;;;;12.75;6.55;;;18.00;99.90;;;;;;5017795;28;20459;-51
2023/02/10 06:46:24;;;;;;;14.10;6.78;;;18.00;99.90;;;;;;5035305;28;20036;-50
2023/02/10 06:48:50;;;;;;;13.32;6.40;;;18.00;99.90;;;;;;5035646;28;20087;-51
2023/02/10 06:51:15;;;;;;;13.80;6.93;;;18.00;99.90;;;;;;5035459;28;20037;-52
2023/02/10 06:53:42;;;;;;;11.68;6.60;;;17.90;99.90;;;;;;5035206;28;20104;-52
2023/02/10 06:56:08;;;;;;;11.93;6.38;;;18.00;99.90;;;;;;5035482;28;20037;-54
2023/02/10 06:58:34;;;;;;;15.63;6.60;;;18.00;99.90;;;;;;5035376;28;20104;-55
2023/02/10 07:01:00;;;;;;;12.45;6.78;;;18.00;99.90;;;;;;5034933;28;20140;-54
2023/02/10 07:03:27;;;;;;;11.77;6.85;;;17.90;99.90;;;;;;5035497;28;20036;-55
2023/02/10 07:05:53;;;;;;;11.85;6.13;;;18.00;99.90;;;;;;5039782;28;20025;-52
2023/02/10 07:08:18;;;;;;;13.82;7.25;;;18.00;99.90;;;;;;5030607;28;20032;-52
2023/02/10 07:10:44;;;;;;;13.10;6.82;;;18.00;99.90;;;;;;5047601;28;20382;-53
2023/02/10 07:13:10;;;;;;;14.73;6.47;;;18.00;99.90;;;;;;5050741;28;20029;-52
2023/02/10 07:15:36;;;;;;;13.77;6.97;;;18.00;99.90;;;;;;5046250;28;20025;-53
2023/02/10 07:18:02;;;;;;;13.38;7.40;;;18.00;99.90;;;;;;5054910;28;20028;-52
2023/02/10 07:20:27;;;;;;;14.65;7.07;;;18.00;99.90;;;;;;5043160;28;20040;-52
2023/02/10 07:22:53;;;;;;;14.38;7.07;;;18.00;99.90;;;;;;5052238;28;20086;-52
2023/02/10 07:25:19;;;;;;;14.93;7.22;;;18.00;99.90;;;;;;5055278;28;20362;-52
2023/02/10 07:27:45;;;;;;;13.43;7.53;;;17.90;99.90;;;;;;5036627;28;20096;-51
2023/02/10 07:30:12;;;;;;;16.35;7.32;;;17.90;99.90;;;;;;5034542;28;20483;-52
2023/02/10 07:32:38;;;;;;;14.67;7.17;;;18.00;99.90;;;;;;5040723;28;20028;-52
2023/02/10 07:35:04;;;;;;;12.77;7.05;;;17.90;99.90;;;;;;5041788;28;20117;-51
2023/02/10 07:37:31;;;;;;;12.80;7.20;;;17.90;99.90;;;;;;5053929;28;20025;-53
2023/02/10 07:39:57;;;;;;;13.93;8.02;;;17.90;99.90;;;;;;5047692;28;20375;-53
2023/02/10 07:42:23;;;;;;;16.08;7.65;;;17.90;99.90;;;;;;5033380;28;20022;-53
2023/02/10 07:44:49;;;;;;;16.27;8.05;;;17.90;99.90;;;;;;5034930;28;20112;-54
2023/02/10 07:47:14;;;;;;;15.98;7.90;;;17.90;99.90;;;;;;5034564;28;20024;-53
2023/02/10 07:49:40;;;;;;;15.18;8.52;;;17.90;99.90;;;;;;5031483;28;20053;-52
2023/02/10 07:52:06;;;;;;;16.38;7.78;;;17.90;99.90;;;;;;5033829;28;20045;-53
2023/02/10 07:54:32;;;;;;;12.80;8.02;;;17.90;99.90;;;;;;5034012;28;20629;-56
2023/02/10 07:56:57;;;;;;;22.63;9.80;;;17.90;99.90;;;;;;5016096;28;20475;-55
2023/02/10 07:59:24;;;;;;;15.77;8.68;;;17.90;99.90;;;;;;5031661;28;20112;-52
2023/02/10 08:01:50;;;;;;;21.08;8.50;;;17.90;99.90;;;;;;5034322;28;20041;-52
2023/02/10 08:04:16;;;;;;;23.30;11.35;;;17.90;99.90;;;;;;5034389;28;20067;-51
2023/02/10 08:06:42;;;;;;;21.63;10.57;;;17.90;99.90;;;;;;5033372;28;20025;-54
2023/02/10 08:09:09;;;;;;;16.83;9.52;;;17.90;99.90;;;;;;5052588;28;20025;-53
2023/02/10 08:11:35;;;;;;;19.65;11.73;;;17.90;99.90;;;;;;5036081;28;20082;-53
2023/02/10 08:14:02;;;;;;;16.58;9.80;;;17.90;99.90;;;;;;5054236;28;20017;-53
2023/02/10 08:16:27;;;;;;;17.13;10.90;;;17.90;99.90;;;;;;5049840;28;20032;-52
2023/02/10 08:18:53;;;;;;;21.58;12.20;;;17.90;99.90;;;;;;5053114;28;20017;-53
2023/02/10 08:21:19;;;;;;;17.30;10.70;;;17.90;99.90;;;;;;5053780;28;20039;-53
2023/02/10 08:23:45;;;;;;;18.88;10.18;;;17.90;99.90;;;;;;5052593;28;20025;-53
2023/02/10 08:26:12;;;;;;;19.17;11.00;;;18.00;99.90;;;;;;5038679;28;20222;-54
2023/02/10 08:28:39;;;;;;;18.90;10.98;;;18.00;99.90;;;;;;5033631;28;20058;-54
2023/02/10 08:31:08;;;;;;;19.40;10.68;;;18.00;99.90;;;;;;5033880;28;20076;-53
2023/02/10 08:33:35;;;;;;;18.98;11.13;;;18.00;99.90;;;;;;5033307;28;20502;-54
2023/02/10 08:36:12;;;;;;;21.52;11.40;;;18.00;99.90;;;;;;5031162;28;20030;-55
2023/02/10 08:38:38;;;;;;;19.20;11.57;;;18.00;99.90;;;;;;5032973;28;20026;-55
2023/02/10 08:41:04;;;;;;;18.58;10.98;;;18.10;99.90;;;;;;5033392;28;20028;-54
2023/02/10 08:43:31;;;;;;;15.80;10.55;;;18.10;99.90;;;;;;5033512;28;20518;-55
2023/02/10 08:45:58;;;;;;;19.10;11.05;;;18.10;99.90;;;;;;5032546;28;20490;-54
2023/02/10 08:48:25;;;;;;;17.83;10.20;;;18.10;99.90;;;;;;5033889;28;20060;-54
2023/02/10 08:50:50;;;;;;;19.35;11.43;;;18.10;99.90;;;;;;5033615;28;20033;-54
2023/02/10 08:53:17;;;;;;;20.15;11.27;;;18.10;99.90;;;;;;5030841;28;20040;-54
2023/02/10 08:55:43;;;;;;;19.65;10.23;;;18.10;99.90;;;;;;5032672;28;20053;-54
2023/02/10 08:58:09;;;;;;;16.77;10.85;;;18.10;99.90;;;;;;5033491;28;20490;-54
2023/02/10 09:00:34;;;;;;;19.42;10.73;;;18.20;99.90;;;;;;5032214;28;20525;-54
2023/02/10 09:03:00;;;;;;;18.92;11.60;;;18.20;99.90;;;;;;5031893;28;20029;-54
2023/02/10 09:05:27;;;;;;;17.17;11.05;;;18.20;99.90;;;;;;5053196;28;20053;-54
2023/02/10 09:07:52;;;;;;;20.52;12.02;;;18.20;99.90;;;;;;5053341;28;20025;-54
2023/02/10 09:10:18;;;;;;;23.40;11.93;;;18.20;99.90;;;;;;5049409;28;20040;-53
2023/02/10 09:12:44;;;;;;;20.30;12.02;;;18.20;99.90;;;;;;5051615;28;20482;-53
2023/02/10 09:15:10;;;;;;;20.88;11.45;;;18.20;99.90;;;;;;5053028;28;20029;-53
2023/02/10 09:17:36;;;;;;;15.25;10.52;;;18.20;99.90;;;;;;5053100;28;20025;-54
2023/02/10 09:20:03;;;;;;;18.83;12.25;;;18.20;99.90;;;;;;5048597;28;20040;-54
2023/02/10 09:22:29;;;;;;;20.25;11.30;;;18.20;99.90;;;;;;5052124;28;20462;-54
2023/02/10 09:24:54;;;;;;;21.60;10.80;;;18.30;99.90;;;;;;5053106;28;20122;-54
2023/02/10 09:27:21;;;;;;;19.90;11.38;;;18.20;99.90;;;;;;5052839;28;20029;-55
2023/02/10 09:29:47;;;;;;;18.58;11.27;;;18.20;99.90;;;;;;5017500;28;20131;-54
2023/02/10 09:32:13;;;;;;;21.95;12.30;;;18.30;99.90;;;;;;4994845;28;20495;-53
2023/02/10 09:34:39;;;;;;;19.55;11.68;;;18.20;99.90;;;;;;4994906;28;20048;-53
2023/02/10 09:37:06;;;;;;;20.90;10.75;;;18.20;99.90;;;;;;5014918;28;20038;-54
2023/02/10 09:39:32;;;;;;;18.63;11.70;;;18.30;99.90;;;;;;5016863;28;20044;-54
2023/02/10 09:42:04;;;;;;;18.00;10.75;;;18.30;99.90;;;;;;5052584;28;20054;-53
2023/02/10 09:44:34;;;;;;;16.95;10.07;;;18.20;99.90;;;;;;5052527;28;20021;-53
2023/02/10 09:47:18;;;;;;;19.05;11.13;;;18.30;99.90;;;;;;5040609;28;20318;-54
2023/02/10 09:49:46;;;;;;;19.60;11.38;;;18.20;99.90;;;;;;5031868;28;20021;-54
2023/02/10 09:52:31;;;;;;;19.35;9.88;;;18.20;99.90;;;;;;5032332;28;20120;-53
2023/02/10 09:54:59;;;;;;;21.25;10.55;;;18.20;99.90;;;;;;5031164;28;20025;-53
2023/02/10 09:57:40;;;;;;;19.10;11.25;;;18.20;99.90;;;;;;5011770;28;20108;-53
2023/02/10 10:00:16;;;;;;;14.75;9.18;;;18.20;99.90;;;;;;5029717;28;20033;-53
2023/02/10 10:02:51;;;;;;;16.17;10.15;;;18.20;99.90;;;;;;5038833;28;20029;-53
2023/02/10 10:05:36;;;;;;;21.08;11.45;;;18.20;99.90;;;;;;5036901;28;20483;-53
2023/02/10 10:08:10;;;;;;;18.58;10.95;;;18.30;99.90;;;;;;5047776;28;20539;-54
2023/02/10 10:10:42;;;;;;;21.02;11.68;;;18.30;99.90;;;;;;5051965;28;20036;-54
2023/02/10 10:13:16;;;;;;;18.85;9.90;;;18.30;99.90;;;;;;5037942;28;20024;-54
2023/02/10 10:15:55;;;;;;;20.13;10.30;;;18.30;99.90;;;;;;5050334;28;20074;-54
2023/02/10 10:18:41;;;;;;;17.15;10.95;;;18.30;99.90;;;;;;5029910;28;20044;-53
2023/02/10 10:21:21;;;;;;;17.80;11.32;;;18.30;99.90;;;;;;5024906;28;20029;-52
2023/02/10 10:24:13;;;;;;;18.52;10.75;;;18.40;99.90;;;;;;5038246;28;20045;-55
2023/02/10 10:27:10;;;;;;;18.55;11.77;;;18.30;99.90;;;;;;5017316;28;20025;-54
2023/02/10 10:29:43;;;;;;;19.45;11.63;;;18.40;99.90;;;;;;5031633;28;20021;-54
2023/02/10 10:32:23;;;;;;;20.33;11.90;;;18.40;99.90;;;;;;5034598;28;20028;-55
2023/02/10 10:34:54;;;;;;;21.67;12.57;;;18.40;99.90;;;;;;5033838;28;20017;-54
2023/02/10 10:37:25;;;;;;;22.77;11.80;;;18.40;99.90;;;;;;5047452;28;20052;-55
2023/02/10 10:40:02;;;;;;;23.15;13.38;;;18.40;99.90;;;;;;5043476;28;20388;-55
2023/02/10 10:42:41;;;;;;;23.67;13.57;;;18.40;99.90;;;;;;5044888;28;20041;-55
2023/02/10 10:45:16;;;;;;;24.65;13.85;;;18.50;99.90;;;;;;5013752;28;20025;-55
2023/02/10 10:47:49;;;;;;;27.60;14.70;;;18.50;99.90;;;;;;5023754;28;20097;-55
2023/02/10 10:50:18;;;;;;;26.77;14.90;;;18.40;99.90;;;;;;5009721;28;20033;-54
2023/02/10 10:52:51;;;;;;;24.95;13.40;;;18.40;99.90;;;;;;5031899;28;20025;-54
2023/02/10 10:55:35;;;;;;;25.88;14.43;;;18.40;99.90;;;;;;5033581;28;20033;-53
2023/02/10 10:58:08;;;;;;;26.90;14.88;;;18.40;99.90;;;;;;5051626;28;20017;-54
2023/02/10 11:00:33;;;;;;;21.80;13.45;;;18.50;99.90;;;;;;5015821;28;20068;-54
2023/02/10 11:03:02;;;;;;;20.58;13.50;;;18.50;99.90;;;;;;5008183;28;20053;-54
2023/02/10 11:05:35;;;;;;;20.60;11.50;;;18.50;99.90;;;;;;5037743;28;20033;-53
2023/02/10 11:08:02;;;;;;;22.23;13.38;;;18.50;99.90;;;;;;5032514;28;20483;-55
2023/02/10 11:10:48;;;;;;;20.67;11.98;;;18.50;99.90;;;;;;5031599;28;20474;-53
2023/02/10 11:13:20;;;;;;;22.45;12.15;;;18.60;99.90;;;;;;5030717;28;20083;-53
2023/02/10 11:15:47;;;;;;;17.77;12.10;;;18.60;99.90;;;;;;5024613;28;20025;-53
2023/02/10 11:18:20;;;;;;;21.92;12.73;;;18.60;99.90;;;;;;5016930;28;20078;-54
2023/02/10 11:21:01;;;;;;;19.80;11.40;;;18.60;99.90;;;;;;5039241;28;20091;-53
2023/02/10 11:23:28;;;;;;;18.23;11.18;;;18.60;99.90;;;;;;5038222;28;20104;-54
2023/02/10 11:26:06;;;;;;;23.73;12.15;;;18.60;99.90;;;;;;5054856;28;20439;-54
2023/02/10 11:28:35;;;;;;;20.10;10.38;;;18.60;99.90;;;;;;5047252;28;20065;-53
2023/02/10 11:31:19;;;;;;;19.80;10.38;;;18.60;99.90;;;;;;5049699;28;20029;-54
2023/02/10 11:33:59;;;;;;;16.42;10.40;;;18.60;99.90;;;;;;5046035;28;20029;-54
2023/02/10 11:36:37;;;;;;;16.80;9.15;;;18.60;99.90;;;;;;5017506;28;20020;-55
2023/02/10 11:39:05;;;;;;;17.42;9.38;;;18.60;99.90;;;;;;5042598;28;20029;-54
2023/02/10 11:41:33;;;;;;;14.55;9.32;;;18.60;99.90;;;;;;5035077;28;20053;-54
2023/02/10 11:44:00;;;;;;;;;;;18.60;99.90;;;;;;5029802;28;20391;-54
2023/02/10 11:46:28;;;;;;;15.55;8.73;;;18.60;99.90;;;;;;5033264;28;19905;-55
2023/02/10 11:48:57;;;;;;;15.23;8.35;;;18.70;99.90;;;;;;5016955;28;20029;-55
2023/02/10 11:51:24;;;;;;;14.13;8.30;;;18.60;99.90;;;;;;5016385;28;20088;-55
2023/02/10 11:53:51;;;;;;;14.32;7.45;;;18.70;99.90;;;;;;5017136;28;20056;-54
2023/02/10 11:56:19;;;;;;;13.35;7.75;;;18.70;99.90;;;;;;5051204;28;20028;-54
2023/02/10 11:59:09;;;;;;;15.70;7.82;;;18.70;99.90;;;;;;5054276;28;20057;-54
2023/02/10 12:02:08;;;;;;;17.33;9.07;;;18.70;99.90;;;;;;5040946;28;20041;-54
2023/02/10 12:05:01;;;;;;;14.23;7.78;;;18.70;99.90;;;;;;5039058;28;20031;-53
2023/02/10 12:07:48;;;;;;;13.77;8.05;;;18.70;99.90;;;;;;5035054;28;20482;-54
2023/02/10 12:10:40;;;;;;;14.10;7.53;;;18.70;99.90;;;;;;5054287;28;20033;-54
2023/02/10 12:13:22;;;;;;;12.18;7.00;;;18.70;99.90;;;;;;5050841;28;20041;-53
2023/02/10 12:15:57;;;;;;;13.98;7.28;;;18.70;99.90;;;;;;5054131;28;20055;-53
2023/02/10 12:18:51;;;;;;;13.00;7.40;;;18.70;99.90;;;;;;5023030;28;20390;-54
2023/02/10 12:21:29;;;;;;;9.15;6.13;;;18.70;99.90;;;;;;5038539;28;20160;-54
2023/02/10 12:24:01;;;;;;;11.15;6.00;;;18.70;99.90;;;;;;5034014;28;20026;-53
2023/02/10 12:26:42;;;;;;;13.00;6.70;;;18.70;99.90;;;;;;5018643;28;20116;-53
2023/02/10 12:29:56;;;;;;;12.35;6.72;;;18.70;99.90;;;;;;5042686;28;20403;-54
2023/02/10 12:32:22;;;;;;;13.07;6.18;;;18.70;99.90;;;;;;5013004;28;20040;-53
2023/02/10 12:34:50;;;;;;;13.77;6.53;;;18.70;99.90;;;;;;5046707;28;20029;-54
2023/02/10 12:37:19;;;;;;;13.52;6.25;;;18.70;99.90;;;;;;5033582;28;20022;-53
2023/02/10 12:40:17;;;;;;;14.73;6.93;;;18.70;99.90;;;;;;5033420;28;20025;-54
2023/02/10 12:42:57;;;;;;;12.35;5.63;;;18.70;99.90;;;;;;5033789;28;20032;-59
2023/02/10 12:45:52;;;;;;;11.55;6.38;;;18.70;99.90;;;;;;5020762;28;20025;-54